PORT of SHANGHAI

Country: China Country: China (CN)
Latitude / Longitude: 31.381445° / 121.601° Show on Map Show on Map
Local Time:  UTC +8
UN/LOCODE: CNSHA
Vessels in Port: 1042
Expected Arrivals: 154

Recent Arrivals & Departures


Vessel Name
Arrival (UTC)
Arrival (LT)
Departure (UTC)
Departure (LT)
Vessel Type: Cargo Vessels  CHUANG YUAN JI 6268 2014-09-19 12:04:00 2014-09-19 20:04:00
Vessel Type: Cargo Vessels  PU HAI 218 2014-09-18 09:49:00 2014-09-18 17:49:00 2014-09-19 12:00:00 2014-09-19 20:00:00
Vessel Type: Cargo Vessels  XINGNING15 2014-09-19 11:59:00 2014-09-19 19:59:00
Vessel Type: Cargo Vessels  WAN HUI E 1588 2014-09-06 07:29:00 2014-09-06 15:29:00 2014-09-19 11:59:00 2014-09-19 19:59:00
Vessel Type: Cargo Vessels  TAISHUN1599 2014-09-19 11:58:00 2014-09-19 19:58:00
Vessel Type: Tugs, Pilots etc  HAI XUN 01036 2014-09-19 11:57:00 2014-09-19 19:57:00
Vessel Type: Tankers  HUA JIN 1 2014-09-19 11:57:00 2014-09-19 19:57:00
Vessel Type: Cargo Vessels  YUXINHUO10998 2014-09-19 03:39:00 2014-09-19 11:39:00 2014-09-19 11:53:00 2014-09-19 19:53:00
Vessel Type: Cargo Vessels  JIE BANG 56 2014-09-19 11:53:00 2014-09-19 19:53:00
Vessel Type: Cargo Vessels  LONGWEI1273 2014-09-19 05:24:00 2014-09-19 13:24:00 2014-09-19 11:52:00 2014-09-19 19:52:00

Expected Arrivals


Vessel Name
Scheduled Arrival (UTC)
Scheduled Arrival (LT)
Estimated Arrival (UTC)
Estimated Arrival (LT)
Vessel Type: Cargo Vessels  TIANJIN HIGHWAY 2014-09-18 12:45:00 2014-09-18 20:45:00 2014-09-19 12:45:00 2014-09-19 20:45:00
Vessel Type: Passenger Vessels  CHUANZHANG5 2014-09-18 14:00:00 2014-09-18 22:00:00
Vessel Type: Cargo Vessels  SHENG JIE 1 2014-09-18 15:00:00 2014-09-18 23:00:00
Vessel Type: Cargo Vessels  XING GUANG 9 2014-09-18 16:00:00 2014-09-19 00:00:00
Vessel Type: Cargo Vessels  DA ZHI 2014-09-18 16:00:00 2014-09-19 00:00:00
Vessel Type: Cargo Vessels  SHI YUAN 2014-09-18 17:00:00 2014-09-19 01:00:00
Vessel Type: Cargo Vessels  PUHAI213 2014-09-18 17:30:00 2014-09-19 01:30:00
Vessel Type: Tankers  JIAO YUN YOU 9 2014-09-18 18:00:00 2014-09-19 02:00:00
Vessel Type: Cargo Vessels  XING LONG ZHOU397 2014-09-18 19:00:00 2014-09-19 03:00:00
Vessel Type: Cargo Vessels  JI HAI YONG QIANG 2014-09-18 19:00:00 2014-09-19 03:00:00

Wind Forecast


    
Time (UTC)
Speed
Direction
Temperature
2014-09-19 12:00:00 11 knots 22°C
2014-09-19 15:00:00 10 knots 22°C
2014-09-19 18:00:00 10 knots 22°C
2014-09-19 21:00:00 10 knots 11° 22°C
2014-09-20 00:00:00 9 knots 29° 23°C
2014-09-20 03:00:00 9 knots 60° 25°C
2014-09-20 06:00:00 8 knots 65° 25°C
2014-09-20 09:00:00 8 knots 65° 24°C
2014-09-20 12:00:00 9 knots 63° 24°C
2014-09-20 15:00:00 10 knots 54° 24°C
2014-09-20 18:00:00 12 knots 40° 24°C
2014-09-20 21:00:00 14 knots 31° 23°C
2014-09-21 00:00:00 16 knots 37° 24°C
2014-09-21 03:00:00 20 knots 38° 25°C
2014-09-21 06:00:00 23 knots 39° 25°C
2014-09-21 09:00:00 22 knots 35° 24°C
2014-09-21 12:00:00 27 knots 27° 24°C